Time;durP1;ratioP1;P1;durP2;ratioP2;P2;SDS_P1;SDS_P2;PMS_P1;PMS_P2;Temp;Humidity;BMP_temperature;BMP_pressure;BME280_temperature;BME280_humidity;BME280_pressure;Samples;Min_cycle;Max_cycle;Signal;HPM_P1;HPM_P2
2022/09/24 00:02:03;;;;;;;11.88;7.55;;;;;;;;;;5003639;28;20030;-56
2022/09/24 00:04:30;;;;;;;;;;;;;;;;;;5012290;28;20052;-57
2022/09/24 00:06:56;;;;;;;12.52;6.75;;;;;;;;;;5011497;28;19910;-55
2022/09/24 00:09:22;;;;;;;9.95;6.88;;;;;;;;;;5001757;28;20030;-55
2022/09/24 00:11:49;;;;;;;13.10;7.70;;;;;;;;;;4998395;28;20026;-55
2022/09/24 00:14:15;;;;;;;9.52;7.03;;;;;;;;;;5003662;28;20037;-54
2022/09/24 00:16:43;;;;;;;9.65;7.25;;;;;;;;;;5002348;28;20120;-57
2022/09/24 00:19:09;;;;;;;11.70;8.15;;;;;;;;;;4991767;28;20080;-57
2022/09/24 00:21:36;;;;;;;11.70;7.38;;;;;;;;;;4990830;28;20039;-55
2022/09/24 00:27:07;;;;;;;10.88;7.05;;;;;;;;;;4993368;28;20470;-52
2022/09/24 00:29:34;;;;;;;17.15;8.15;;;;;;;;;;4991708;28;20440;-58
2022/09/24 00:32:00;;;;;;;12.52;7.28;;;;;;;;;;5002222;28;20037;-54
2022/09/24 00:34:27;;;;;;;16.08;6.20;;;;;;;;;;5011226;28;20128;-55
2022/09/24 00:36:53;;;;;;;17.55;6.28;;;;;;;;;;4995654;28;20033;-54
2022/09/24 00:39:19;;;;;;;10.87;6.23;;;;;;;;;;5009862;28;20018;-55
2022/09/24 00:41:48;;;;;;;12.55;6.85;;;;;;;;;;4994484;28;20029;-56
2022/09/24 00:44:32;;;;;;;9.73;7.05;;;;;;;;;;5000749;28;20504;-55
2022/09/24 00:46:59;;;;;;;10.32;6.63;;;;;;;;;;5013750;28;20022;-58
2022/09/24 00:49:25;;;;;;;9.10;6.57;;;;;;;;;;5003310;28;20026;-55
2022/09/24 00:51:51;;;;;;;9.63;6.15;;;;;;;;;;5004439;28;20647;-57
2022/09/24 00:54:22;;;;;;;8.30;6.53;;;;;;;;;;5008670;28;20030;-56
2022/09/24 00:56:49;;;;;;;12.20;6.50;;;;;;;;;;5014700;28;20037;-56
2022/09/24 00:59:17;;;;;;;9.18;6.65;;;;;;;;;;5014744;28;20384;-56
2022/09/24 01:01:46;;;;;;;9.98;6.40;;;;;;;;;;5005575;28;20502;-57
2022/09/24 01:04:13;;;;;;;8.00;7.20;;;;;;;;;;4995279;28;20511;-55
2022/09/24 01:06:39;;;;;;;7.25;6.22;;;;;;;;;;5013611;28;20033;-57
2022/09/24 01:09:05;;;;;;;11.35;7.10;;;;;;;;;;5004109;28;20393;-55
2022/09/24 01:11:50;;;;;;;10.38;7.03;;;;;;;;;;4996252;28;20022;-57
2022/09/24 01:14:22;;;;;;;8.30;7.45;;;;;;;;;;4995136;28;20034;-56
2022/09/24 01:16:48;;;;;;;8.35;7.38;;;;;;;;;;4997312;28;20090;-57
2022/09/24 01:19:33;;;;;;;8.68;7.35;;;;;;;;;;5004074;28;20029;-56
2022/09/24 01:22:22;;;;;;;9.50;7.00;;;;;;;;;;5014679;28;20038;-57
2022/09/24 01:25:07;;;;;;;12.43;7.25;;;;;;;;;;4986212;28;20084;-53
2022/09/24 01:27:38;;;;;;;9.20;7.68;;;;;;;;;;5011632;28;20026;-56
2022/09/24 01:30:06;;;;;;;11.30;7.55;;;;;;;;;;5013855;28;20424;-53
2022/09/24 01:32:33;;;;;;;10.23;7.28;;;;;;;;;;5005803;28;20452;-56
2022/09/24 01:34:59;;;;;;;;;;;;;;;;;;5014891;28;20056;-53
2022/09/24 01:37:26;;;;;;;10.07;7.30;;;;;;;;;;5009680;28;20395;-54
2022/09/24 01:39:54;;;;;;;14.10;8.77;;;;;;;;;;5000922;28;20377;-56
2022/09/24 01:42:21;;;;;;;11.50;8.18;;;;;;;;;;5013500;28;20029;-55
2022/09/24 01:44:49;;;;;;;11.02;8.07;;;;;;;;;;5013727;28;20514;-56
2022/09/24 01:47:19;;;;;;;11.18;8.77;;;;;;;;;;5012595;28;20030;-55
2022/09/24 01:49:46;;;;;;;12.07;9.07;;;;;;;;;;5014052;28;20236;-57
2022/09/24 01:52:14;;;;;;;12.85;9.07;;;;;;;;;;5003630;28;20038;-55
2022/09/24 01:54:41;;;;;;;11.68;8.75;;;;;;;;;;5012249;28;20159;-54
2022/09/24 01:57:25;;;;;;;9.52;8.32;;;;;;;;;;5008927;28;20029;-53
2022/09/24 01:59:57;;;;;;;12.73;9.32;;;;;;;;;;5048414;23;20132;-59
2022/09/24 02:02:27;;;;;;;17.20;8.93;;;;;;;;;;5033407;28;20124;-59
2022/09/24 02:04:57;;;;;;;9.75;8.45;;;;;;;;;;5033050;28;20104;-60
2022/09/24 02:07:29;;;;;;;12.30;8.05;;;;;;;;;;5033119;28;20108;-58
2022/09/24 02:09:55;;;;;;;15.88;8.35;;;;;;;;;;5033010;28;20021;-59
2022/09/24 02:12:25;;;;;;;12.73;8.38;;;;;;;;;;5015189;28;20037;-59
2022/09/24 02:14:55;;;;;;;19.63;9.18;;;;;;;;;;5016482;28;20018;-59
2022/09/24 02:17:27;;;;;;;10.98;8.35;;;;;;;;;;5008329;28;20084;-59
2022/09/24 02:19:55;;;;;;;10.10;7.55;;;;;;;;;;4982679;28;20087;-59
2022/09/24 02:22:22;;;;;;;10.25;8.30;;;;;;;;;;5029874;28;20185;-59
2022/09/24 02:24:50;;;;;;;8.65;7.72;;;;;;;;;;5032653;28;20364;-59
2022/09/24 02:27:18;;;;;;;9.07;8.18;;;;;;;;;;5020547;28;20071;-59
2022/09/24 02:29:45;;;;;;;10.63;7.55;;;;;;;;;;5013026;28;20030;-59
2022/09/24 02:32:12;;;;;;;11.95;6.70;;;;;;;;;;5014561;28;20361;-59
2022/09/24 02:34:41;;;;;;;11.82;8.13;;;;;;;;;;5016409;28;20045;-60
2022/09/24 02:37:09;;;;;;;8.10;7.15;;;;;;;;;;5029073;28;20448;-59
2022/09/24 02:39:35;;;;;;;7.88;6.72;;;;;;;;;;5012940;28;20022;-59
2022/09/24 02:42:04;;;;;;;10.55;7.80;;;;;;;;;;5013235;28;20030;-59
2022/09/24 02:44:30;;;;;;;9.57;8.20;;;;;;;;;;5013102;28;20026;-59
2022/09/24 02:46:56;;;;;;;12.53;7.47;;;;;;;;;;5013064;28;20022;-59
2022/09/24 02:49:22;;;;;;;14.32;8.30;;;;;;;;;;5012840;28;20156;-59
2022/09/24 02:51:48;;;;;;;10.27;7.93;;;;;;;;;;5013017;28;20062;-59
2022/09/24 02:54:14;;;;;;;10.45;7.70;;;;;;;;;;5023652;28;20496;-59
2022/09/24 02:56:40;;;;;;;7.85;7.03;;;;;;;;;;5008882;28;20031;-60
2022/09/24 02:59:07;;;;;;;10.95;8.13;;;;;;;;;;5031345;28;20041;-59
2022/09/24 03:01:33;;;;;;;8.87;7.17;;;;;;;;;;5023408;28;20022;-59
2022/09/24 03:04:00;;;;;;;10.68;8.02;;;;;;;;;;5013630;28;20280;-59
2022/09/24 03:06:26;;;;;;;12.35;7.53;;;;;;;;;;5020003;28;20026;-59
2022/09/24 03:08:52;;;;;;;8.55;7.63;;;;;;;;;;5012704;28;20020;-59
2022/09/24 03:11:20;;;;;;;11.63;7.22;;;;;;;;;;5012734;28;20484;-59
2022/09/24 03:13:47;;;;;;;8.48;7.28;;;;;;;;;;5019103;28;20496;-59
2022/09/24 03:16:13;;;;;;;9.85;7.40;;;;;;;;;;4995062;28;20117;-59
2022/09/24 03:18:39;;;;;;;10.50;7.38;;;;;;;;;;5012102;28;20082;-59
2022/09/24 03:21:07;;;;;;;15.93;7.53;;;;;;;;;;5010499;28;20121;-59
2022/09/24 03:23:33;;;;;;;11.02;7.07;;;;;;;;;;5012167;28;20560;-59
2022/09/24 03:25:59;;;;;;;14.47;7.43;;;;;;;;;;5023987;28;20025;-60
2022/09/24 03:28:26;;;;;;;11.13;7.85;;;;;;;;;;5032378;28;20467;-59
2022/09/24 03:31:01;;;;;;;13.63;8.00;;;;;;;;;;5024907;28;20029;-59
2022/09/24 03:33:33;;;;;;;10.90;7.50;;;;;;;;;;5012259;28;20030;-59
2022/09/24 03:36:07;;;;;;;11.05;7.50;;;;;;;;;;5013985;28;20037;-60
2022/09/24 03:38:33;;;;;;;10.57;7.82;;;;;;;;;;4998825;28;20076;-58
2022/09/24 03:41:00;;;;;;;11.40;8.50;;;;;;;;;;5013077;28;20113;-59
2022/09/24 03:43:26;;;;;;;8.40;7.15;;;;;;;;;;5011728;28;20026;-59
2022/09/24 03:45:52;;;;;;;9.27;7.82;;;;;;;;;;5012634;28;20030;-59
2022/09/24 03:48:19;;;;;;;15.30;7.88;;;;;;;;;;5031323;28;20028;-60
2022/09/24 03:50:45;;;;;;;12.75;8.63;;;;;;;;;;5031721;28;20022;-59
2022/09/24 03:53:12;;;;;;;8.98;8.07;;;;;;;;;;5031846;28;20099;-59
2022/09/24 03:55:45;;;;;;;9.80;7.47;;;;;;;;;;5013960;28;20034;-59
2022/09/24 03:58:12;;;;;;;10.85;8.10;;;;;;;;;;5031798;28;20383;-59
2022/09/24 04:00:38;;;;;;;10.35;8.30;;;;;;;;;;5031194;28;20037;-58
2022/09/24 04:03:04;;;;;;;9.27;8.30;;;;;;;;;;5031603;28;20017;-60
2022/09/24 04:05:31;;;;;;;8.43;7.57;;;;;;;;;;5031586;28;20442;-59
2022/09/24 04:07:57;;;;;;;11.27;8.17;;;;;;;;;;5031542;28;20290;-59
2022/09/24 04:10:23;;;;;;;10.60;8.13;;;;;;;;;;5031325;28;20022;-58
2022/09/24 04:12:50;;;;;;;10.30;8.07;;;;;;;;;;5031503;28;20487;-59
2022/09/24 04:15:17;;;;;;;15.13;8.63;;;;;;;;;;5035074;28;20030;-59
2022/09/24 04:17:43;;;;;;;;;;;;;;;;;;5036174;28;20260;-60
2022/09/24 04:20:11;;;;;;;11.88;8.85;;;;;;;;;;5035316;28;19911;-58
2022/09/24 04:22:38;;;;;;;12.00;9.00;;;;;;;;;;5035428;28;20033;-59
2022/09/24 04:25:04;;;;;;;11.97;9.03;;;;;;;;;;5035420;28;20049;-59
2022/09/24 04:27:30;;;;;;;10.88;8.57;;;;;;;;;;5035473;28;20252;-59
2022/09/24 04:29:56;;;;;;;12.45;8.98;;;;;;;;;;5035253;28;20078;-59
2022/09/24 04:32:22;;;;;;;12.85;9.30;;;;;;;;;;5035607;28;20022;-59
2022/09/24 04:34:48;;;;;;;11.98;8.85;;;;;;;;;;5035483;28;20420;-59
2022/09/24 04:37:14;;;;;;;9.68;8.75;;;;;;;;;;5035352;28;20030;-59
2022/09/24 04:39:40;;;;;;;14.52;9.73;;;;;;;;;;5034971;28;20040;-59
2022/09/24 04:42:06;;;;;;;11.32;9.95;;;;;;;;;;5035213;28;20049;-59
2022/09/24 04:44:32;;;;;;;10.50;8.23;;;;;;;;;;5035162;28;20436;-59
2022/09/24 04:47:01;;;;;;;10.20;9.20;;;;;;;;;;5035200;28;20064;-59
2022/09/24 04:49:28;;;;;;;13.38;8.95;;;;;;;;;;5035082;28;20045;-59
2022/09/24 04:51:56;;;;;;;11.60;8.93;;;;;;;;;;5034965;28;20021;-59
2022/09/24 04:54:24;;;;;;;13.60;9.27;;;;;;;;;;5034873;28;20036;-60
2022/09/24 04:56:50;;;;;;;12.40;8.82;;;;;;;;;;5034956;28;20037;-59
2022/09/24 04:59:16;;;;;;;11.93;8.85;;;;;;;;;;5034948;28;20104;-59
2022/09/24 05:01:42;;;;;;;12.68;9.30;;;;;;;;;;5034842;28;20519;-58
2022/09/24 05:04:08;;;;;;;11.43;9.02;;;;;;;;;;5034818;28;20045;-59
2022/09/24 05:06:35;;;;;;;15.50;9.60;;;;;;;;;;5034746;28;20052;-59
2022/09/24 05:09:01;;;;;;;11.80;8.43;;;;;;;;;;5034494;28;20025;-59
2022/09/24 05:11:27;;;;;;;13.05;9.05;;;;;;;;;;5034802;28;20026;-59
2022/09/24 05:13:54;;;;;;;13.55;8.27;;;;;;;;;;5034771;28;20027;-59
2022/09/24 05:16:20;;;;;;;11.10;8.25;;;;;;;;;;5034721;28;20033;-59
2022/09/24 05:18:46;;;;;;;12.73;9.85;;;;;;;;;;5034393;28;20036;-59
2022/09/24 05:21:12;;;;;;;12.20;9.25;;;;;;;;;;5034496;28;20562;-59
2022/09/24 05:23:38;;;;;;;18.70;10.02;;;;;;;;;;5016674;28;20026;-59
2022/09/24 05:28:48;;;;;;;11.20;9.60;;;;;;;;;;5034296;28;20041;-59
2022/09/24 05:31:16;;;;;;;13.77;9.50;;;;;;;;;;5035744;28;20025;-56
2022/09/24 05:33:42;;;;;;;16.15;8.60;;;;;;;;;;5035021;28;20025;-56
2022/09/24 05:36:08;;;;;;;13.85;10.15;;;;;;;;;;5034660;28;20034;-55
2022/09/24 05:38:34;;;;;;;12.93;9.18;;;;;;;;;;5034029;28;20083;-51
2022/09/24 05:41:00;;;;;;;10.75;9.25;;;;;;;;;;5030844;28;20025;-54
2022/09/24 05:43:26;;;;;;;15.43;9.67;;;;;;;;;;5013741;28;20091;-53
2022/09/24 05:45:53;;;;;;;12.05;8.27;;;;;;;;;;5014540;28;20106;-52
2022/09/24 05:48:20;;;;;;;11.93;8.82;;;;;;;;;;5014198;28;20030;-53
2022/09/24 05:50:46;;;;;;;12.63;8.43;;;;;;;;;;5014257;28;20597;-52
2022/09/24 05:53:12;;;;;;;15.63;9.20;;;;;;;;;;4996607;28;20030;-53
2022/09/24 05:55:38;;;;;;;13.40;9.10;;;;;;;;;;5014387;28;20423;-52
2022/09/24 05:58:09;;;;;;;11.43;8.75;;;;;;;;;;5014156;28;20323;-52
2022/09/24 06:00:36;;;;;;;11.20;9.10;;;;;;;;;;5013868;28;20037;-52
2022/09/24 06:03:06;;;;;;;16.10;8.88;;;;;;;;;;5013948;28;20034;-53
2022/09/24 06:05:34;;;;;;;14.52;8.43;;;;;;;;;;5014038;28;20026;-52
2022/09/24 06:08:00;;;;;;;15.15;9.38;;;;;;;;;;5013908;28;20025;-59
2022/09/24 06:10:26;;;;;;;11.90;9.88;;;;;;;;;;4996156;28;20050;-59
2022/09/24 06:12:53;;;;;;;12.23;8.25;;;;;;;;;;5013901;28;20065;-58
2022/09/24 06:15:20;;;;;;;11.75;7.95;;;;;;;;;;5013783;28;20025;-58
2022/09/24 06:17:46;;;;;;;12.85;8.68;;;;;;;;;;5013691;28;20034;-60
2022/09/24 06:20:12;;;;;;;12.57;8.70;;;;;;;;;;5013572;28;20480;-59
2022/09/24 06:22:39;;;;;;;15.57;8.73;;;;;;;;;;5013632;28;20036;-59
2022/09/24 06:25:05;;;;;;;12.57;8.30;;;;;;;;;;5013685;28;20109;-58
2022/09/24 06:27:31;;;;;;;12.88;8.10;;;;;;;;;;5013573;28;20021;-59
2022/09/24 06:29:57;;;;;;;14.43;8.20;;;;;;;;;;5013217;28;20472;-58
2022/09/24 06:32:24;;;;;;;15.15;8.27;;;;;;;;;;5013488;28;20037;-58
2022/09/24 06:34:50;;;;;;;13.73;7.63;;;;;;;;;;5013516;28;20041;-59
2022/09/24 06:37:16;;;;;;;13.88;8.18;;;;;;;;;;4995057;28;20782;-59
2022/09/24 06:39:42;;;;;;;14.07;9.20;;;;;;;;;;5013226;28;20018;-58
2022/09/24 06:42:08;;;;;;;10.27;7.80;;;;;;;;;;5013309;28;20030;-59
2022/09/24 06:44:35;;;;;;;15.70;8.30;;;;;;;;;;5012958;28;20028;-59
2022/09/24 06:47:01;;;;;;;13.95;7.43;;;;;;;;;;5010492;28;20030;-58
2022/09/24 06:49:28;;;;;;;12.15;6.85;;;;;;;;;;4995435;28;20026;-58
2022/09/24 06:51:54;;;;;;;9.35;7.10;;;;;;;;;;5013110;28;20472;-59
2022/09/24 06:54:21;;;;;;;10.40;7.93;;;;;;;;;;5013047;28;20030;-59
2022/09/24 06:56:47;;;;;;;14.43;7.43;;;;;;;;;;4995377;28;20088;-59
2022/09/24 06:59:13;;;;;;;9.10;6.65;;;;;;;;;;5012711;28;20029;-59
2022/09/24 07:01:39;;;;;;;10.65;6.90;;;;;;;;;;5012639;28;20512;-58
2022/09/24 07:04:05;;;;;;;10.77;7.45;;;;;;;;;;4995146;28;20032;-59
2022/09/24 07:07:28;;;;;;;12.13;7.40;;;;;;;;;;5012695;28;20021;-58
2022/09/24 07:09:19;;;;;;;8.93;6.72;;;;;;;;;;5012373;28;20110;-59
2022/09/24 07:11:45;;;;;;;8.25;7.20;;;;;;;;;;5012539;28;20105;-58
2022/09/24 07:14:12;;;;;;;9.00;6.70;;;;;;;;;;5012921;28;20038;-59
2022/09/24 07:16:38;;;;;;;18.60;7.80;;;;;;;;;;5012604;28;20036;-58
2022/09/24 07:19:04;;;;;;;13.50;6.93;;;;;;;;;;5012400;28;20061;-59
2022/09/24 07:21:30;;;;;;;13.07;6.53;;;;;;;;;;4994834;28;20029;-59
2022/09/24 07:23:56;;;;;;;11.23;6.40;;;;;;;;;;5012385;28;20034;-59
2022/09/24 07:26:22;;;;;;;14.88;6.78;;;;;;;;;;5012457;28;20017;-58
2022/09/24 07:28:48;;;;;;;17.60;6.60;;;;;;;;;;5012470;28;20084;-59
2022/09/24 07:31:16;;;;;;;11.07;6.78;;;;;;;;;;5012368;28;20018;-59
2022/09/24 07:33:42;;;;;;;9.55;7.07;;;;;;;;;;5012306;28;20022;-58
2022/09/24 07:36:10;;;;;;;8.45;6.68;;;;;;;;;;5012336;28;20052;-59
2022/09/24 07:38:36;;;;;;;11.27;6.15;;;;;;;;;;4994640;28;20030;-59
2022/09/24 07:41:03;;;;;;;11.38;6.82;;;;;;;;;;5012249;28;20514;-58
2022/09/24 07:43:32;;;;;;;14.27;6.38;;;;;;;;;;5012440;28;20026;-59
2022/09/24 07:45:58;;;;;;;11.35;6.28;;;;;;;;;;5013263;28;20052;-56
2022/09/24 07:48:24;;;;;;;12.30;7.05;;;;;;;;;;5013800;28;20105;-54
2022/09/24 07:50:50;;;;;;;15.27;7.22;;;;;;;;;;5012994;28;20026;-55
2022/09/24 07:53:16;;;;;;;7.60;5.95;;;;;;;;;;5010294;28;20567;-55
2022/09/24 07:55:42;;;;;;;9.63;7.22;;;;;;;;;;5013477;28;20037;-56
2022/09/24 07:58:11;;;;;;;71.47;53.17;;;;;;;;;;5013311;28;20025;-57
2022/09/24 08:00:37;;;;;;;12.00;7.75;;;;;;;;;;4994758;28;20045;-58
2022/09/24 08:03:04;;;;;;;11.02;7.10;;;;;;;;;;5012051;28;20104;-57
2022/09/24 08:05:31;;;;;;;11.88;6.88;;;;;;;;;;5011866;28;20026;-59
2022/09/24 08:07:58;;;;;;;9.20;6.85;;;;;;;;;;5011893;28;20022;-58
2022/09/24 08:10:25;;;;;;;10.98;6.70;;;;;;;;;;5012026;28;20026;-59
2022/09/24 08:12:51;;;;;;;9.32;6.93;;;;;;;;;;5012176;28;20396;-59
2022/09/24 08:15:17;;;;;;;11.33;7.03;;;;;;;;;;5011963;28;20455;-58
2022/09/24 08:17:43;;;;;;;9.77;7.13;;;;;;;;;;5011864;28;20522;-59
2022/09/24 08:20:11;;;;;;;8.30;6.63;;;;;;;;;;5011558;28;20038;-58
2022/09/24 08:22:36;;;;;;;;;;;;;;;;;;5012286;28;20630;-57
2022/09/24 08:25:03;;;;;;;13.63;6.93;;;;;;;;;;5011814;28;19905;-59
2022/09/24 08:27:31;;;;;;;9.70;6.18;;;;;;;;;;5011800;28;20083;-59
2022/09/24 08:29:59;;;;;;;7.38;6.60;;;;;;;;;;5011010;28;20101;-58
2022/09/24 08:32:25;;;;;;;13.75;6.30;;;;;;;;;;5011809;28;20088;-58
2022/09/24 08:34:51;;;;;;;10.45;7.50;;;;;;;;;;5011742;28;20026;-58
2022/09/24 08:37:17;;;;;;;12.10;6.18;;;;;;;;;;5011641;28;20530;-58
2022/09/24 08:39:43;;;;;;;10.40;6.97;;;;;;;;;;5011716;28;20026;-59
2022/09/24 08:42:31;;;;;;;9.55;6.38;;;;;;;;;;4993765;28;20118;-59
2022/09/24 08:47:47;;;;;;;11.32;6.60;;;;;;;;;;5011439;28;19963;-57
2022/09/24 08:50:22;;;;;;;10.30;6.03;;;;;;;;;;5011213;28;20025;-58
2022/09/24 08:52:52;;;;;;;7.60;5.63;;;;;;;;;;5011442;28;20033;-57
2022/09/24 08:55:21;;;;;;;9.23;6.13;;;;;;;;;;5011439;28;20067;-59
2022/09/24 08:58:11;;;;;;;11.43;5.70;;;;;;;;;;5011296;28;20034;-58
2022/09/24 09:00:44;;;;;;;10.95;5.88;;;;;;;;;;4976501;28;20478;-59
2022/09/24 09:03:16;;;;;;;8.93;5.65;;;;;;;;;;5015208;28;20033;-59
2022/09/24 09:05:52;;;;;;;12.63;5.70;;;;;;;;;;5014963;28;20072;-59
2022/09/24 09:08:28;;;;;;;9.25;5.65;;;;;;;;;;5014747;28;20033;-59
2022/09/24 09:10:57;;;;;;;9.10;5.90;;;;;;;;;;5014961;28;20052;-59
2022/09/24 09:13:30;;;;;;;10.07;5.95;;;;;;;;;;5014929;28;20026;-59
2022/09/24 09:16:14;;;;;;;9.68;5.47;;;;;;;;;;5014822;28;20488;-59
2022/09/24 09:18:41;;;;;;;10.70;6.50;;;;;;;;;;5014459;28;20095;-59
2022/09/24 09:21:15;;;;;;;13.60;5.97;;;;;;;;;;5014676;28;20038;-60
2022/09/24 09:23:51;;;;;;;12.85;6.15;;;;;;;;;;5014722;28;20092;-60
2022/09/24 09:26:19;;;;;;;15.75;7.10;;;;;;;;;;5014748;28;20049;-60
2022/09/24 09:28:45;;;;;;;8.40;6.57;;;;;;;;;;5014304;28;20022;-60
2022/09/24 09:31:11;;;;;;;9.75;5.85;;;;;;;;;;5014594;28;20030;-60
2022/09/24 09:33:49;;;;;;;8.85;5.60;;;;;;;;;;5014445;28;20443;-60
2022/09/24 09:36:52;;;;;;;10.60;6.20;;;;;;;;;;4996888;28;20030;-59
2022/09/24 09:39:21;;;;;;;6.47;5.38;;;;;;;;;;4956422;28;20377;-58
2022/09/24 09:42:05;;;;;;;12.40;5.88;;;;;;;;;;4996587;28;20149;-59
2022/09/24 09:44:38;;;;;;;16.27;6.15;;;;;;;;;;5014216;28;20030;-60
2022/09/24 09:47:09;;;;;;;7.07;5.70;;;;;;;;;;5014377;28;20049;-59
2022/09/24 09:49:37;;;;;;;8.73;5.60;;;;;;;;;;5014002;28;20488;-60
2022/09/24 09:52:09;;;;;;;10.55;6.95;;;;;;;;;;5014086;28;20132;-59
2022/09/24 09:54:36;;;;;;;11.55;6.38;;;;;;;;;;4996616;28;20538;-59
2022/09/24 09:57:02;;;;;;;12.15;6.93;;;;;;;;;;4996527;28;20373;-59
2022/09/24 09:59:32;;;;;;;14.15;7.32;;;;;;;;;;4996298;28;20105;-60
2022/09/24 10:01:59;;;;;;;10.40;7.32;;;;;;;;;;5013874;28;20090;-59
2022/09/24 10:04:33;;;;;;;10.48;7.05;;;;;;;;;;5013854;28;20457;-58
2022/09/24 10:07:04;;;;;;;9.10;6.57;;;;;;;;;;4996264;28;20033;-59
2022/09/24 10:09:30;;;;;;;8.80;6.53;;;;;;;;;;5013762;28;20022;-60
2022/09/24 10:12:06;;;;;;;9.52;6.72;;;;;;;;;;4994890;28;20061;-59
2022/09/24 10:14:32;;;;;;;10.00;7.25;;;;;;;;;;5013850;28;20101;-60
2022/09/24 10:17:04;;;;;;;11.88;6.82;;;;;;;;;;5013466;28;20048;-60
2022/09/24 10:19:31;;;;;;;10.65;7.28;;;;;;;;;;4996080;28;20030;-59
2022/09/24 10:21:57;;;;;;;32.85;7.57;;;;;;;;;;5013728;28;20034;-58
2022/09/24 10:24:24;;;;;;;8.98;6.40;;;;;;;;;;5013855;28;20122;-59
2022/09/24 10:26:50;;;;;;;;;;;;;;;;;;5014169;28;20033;-58
2022/09/24 10:32:03;;;;;;;10.63;7.05;;;;;;;;;;5013839;28;20714;-54
2022/09/24 10:34:30;;;;;;;11.52;8.32;;;;;;;;;;5013640;28;20025;-59
2022/09/24 10:37:04;;;;;;;11.50;7.63;;;;;;;;;;5013440;28;20105;-58
2022/09/24 10:39:30;;;;;;;15.80;7.30;;;;;;;;;;5013421;28;20064;-57
2022/09/24 10:41:57;;;;;;;10.48;7.82;;;;;;;;;;5013333;28;20469;-53
2022/09/24 10:44:25;;;;;;;68.63;58.13;;;;;;;;;;5013175;28;20120;-55
2022/09/24 10:46:51;;;;;;;12.43;9.05;;;;;;;;;;5013206;28;20104;-58
2022/09/24 10:49:17;;;;;;;11.60;8.02;;;;;;;;;;5013156;28;20072;-58
2022/09/24 10:51:56;;;;;;;14.00;7.80;;;;;;;;;;5020449;28;20160;-59
2022/09/24 10:54:41;;;;;;;10.43;7.75;;;;;;;;;;5022734;28;20034;-59
2022/09/24 10:57:33;;;;;;;11.93;9.77;;;;;;;;;;5031633;28;20051;-58
2022/09/24 10:59:59;;;;;;;16.48;8.20;;;;;;;;;;4994801;28;20447;-57
2022/09/24 11:02:28;;;;;;;10.07;8.77;;;;;;;;;;5016940;28;20029;-57
2022/09/24 11:04:55;;;;;;;10.40;8.90;;;;;;;;;;5002289;28;20037;-58
2022/09/24 11:07:24;;;;;;;12.10;8.40;;;;;;;;;;5009043;28;20026;-60
2022/09/24 11:10:03;;;;;;;11.07;8.60;;;;;;;;;;5011801;28;20018;-59
2022/09/24 11:12:34;;;;;;;16.35;7.97;;;;;;;;;;5012460;28;20025;-58
2022/09/24 11:15:04;;;;;;;10.70;8.20;;;;;;;;;;5014777;28;20029;-59
2022/09/24 11:17:45;;;;;;;13.90;9.82;;;;;;;;;;5011940;28;20033;-59
2022/09/24 11:20:14;;;;;;;14.35;9.02;;;;;;;;;;5020527;28;20033;-59
2022/09/24 11:22:49;;;;;;;9.63;8.57;;;;;;;;;;4994969;28;20037;-59
2022/09/24 11:25:27;;;;;;;10.35;7.47;;;;;;;;;;5020788;28;20369;-59
2022/09/24 11:28:14;;;;;;;12.25;8.80;;;;;;;;;;5011849;28;20076;-58
2022/09/24 11:31:04;;;;;;;10.63;7.85;;;;;;;;;;4986696;28;20040;-59
2022/09/24 11:33:52;;;;;;;10.38;8.60;;;;;;;;;;5013145;28;20484;-58
2022/09/24 11:36:34;;;;;;;12.77;8.57;;;;;;;;;;5023923;28;20039;-59
2022/09/24 11:39:09;;;;;;;11.25;8.52;;;;;;;;;;5031256;28;20029;-58
2022/09/24 11:41:49;;;;;;;8.70;7.80;;;;;;;;;;5031978;28;20030;-59
2022/09/24 11:44:35;;;;;;;8.68;7.25;;;;;;;;;;5019048;28;20412;-59
2022/09/24 11:47:20;;;;;;;11.07;8.48;;;;;;;;;;5012160;28;20109;-59
2022/09/24 11:49:58;;;;;;;11.25;8.13;;;;;;;;;;5012062;28;20435;-58
2022/09/24 11:52:24;;;;;;;10.45;9.15;;;;;;;;;;4992797;28;20030;-59
2022/09/24 11:54:53;;;;;;;12.27;8.80;;;;;;;;;;4992502;28;20593;-58
2022/09/24 11:57:32;;;;;;;18.27;8.38;;;;;;;;;;4993140;28;20124;-58
2022/09/24 12:00:06;;;;;;;10.82;7.60;;;;;;;;;;4974521;28;20038;-58
2022/09/24 12:02:32;;;;;;;13.95;8.02;;;;;;;;;;4992199;28;20030;-59
2022/09/24 12:05:05;;;;;;;12.73;7.28;;;;;;;;;;4974808;28;20030;-58
2022/09/24 12:07:50;;;;;;;11.57;8.43;;;;;;;;;;5009960;28;20045;-58
2022/09/24 12:10:39;;;;;;;11.15;7.97;;;;;;;;;;5031418;28;20026;-59
2022/09/24 12:13:20;;;;;;;8.85;7.80;;;;;;;;;;5010853;28;20095;-58
2022/09/24 12:15:52;;;;;;;12.07;7.80;;;;;;;;;;5000170;28;20037;-58
2022/09/24 12:18:25;;;;;;;12.15;8.18;;;;;;;;;;5014325;28;20037;-58
2022/09/24 12:20:51;;;;;;;14.85;8.32;;;;;;;;;;5011801;28;20022;-58
2022/09/24 12:23:18;;;;;;;11.95;7.53;;;;;;;;;;5011992;28;20156;-57
2022/09/24 12:25:45;;;;;;;9.88;7.93;;;;;;;;;;5012878;28;20022;-59
2022/09/24 12:28:11;;;;;;;;;;;;;;;;;;5008626;28;20427;-59
2022/09/24 12:33:38;;;;;;;11.60;8.63;;;;;;;;;;5013041;28;20570;-60
2022/09/24 12:36:23;;;;;;;11.32;7.45;;;;;;;;;;5008083;28;20442;-59
2022/09/24 12:39:01;;;;;;;11.90;8.13;;;;;;;;;;5030505;28;20029;-60
2022/09/24 12:41:40;;;;;;;8.65;7.50;;;;;;;;;;5015544;28;20106;-60
2022/09/24 12:44:09;;;;;;;8.45;7.65;;;;;;;;;;5015901;28;20026;-59
2022/09/24 12:46:44;;;;;;;9.82;7.18;;;;;;;;;;5032817;28;20026;-59
2022/09/24 12:49:17;;;;;;;9.93;6.95;;;;;;;;;;5016390;28;20477;-60
2022/09/24 12:51:43;;;;;;;10.48;6.75;;;;;;;;;;5014302;28;20034;-60
2022/09/24 12:54:19;;;;;;;10.20;7.18;;;;;;;;;;5015357;28;20030;-60
2022/09/24 12:56:45;;;;;;;9.55;6.75;;;;;;;;;;5015310;28;20030;-60
2022/09/24 12:59:25;;;;;;;10.95;7.22;;;;;;;;;;4997501;28;20033;-60
2022/09/24 13:01:51;;;;;;;15.48;7.93;;;;;;;;;;5015008;28;20075;-60
2022/09/24 13:04:17;;;;;;;10.33;6.80;;;;;;;;;;5015141;28;20080;-58
2022/09/24 13:06:46;;;;;;;10.50;7.22;;;;;;;;;;4997263;28;20034;-57
2022/09/24 13:09:31;;;;;;;10.18;7.03;;;;;;;;;;5018163;28;20353;-57
2022/09/24 13:12:19;;;;;;;7.63;5.85;;;;;;;;;;5005977;28;20045;-56
2022/09/24 13:14:45;;;;;;;;;;;;;;;;;;5015672;28;20498;-57
2022/09/24 13:17:14;;;;;;;10.20;6.30;;;;;;;;;;5014934;28;20011;-58
2022/09/24 13:19:43;;;;;;;9.95;6.78;;;;;;;;;;4999315;28;20077;-56
2022/09/24 13:22:24;;;;;;;9.25;7.25;;;;;;;;;;5012505;28;20029;-56
2022/09/24 13:24:52;;;;;;;9.00;7.07;;;;;;;;;;5013617;28;20415;-57
2022/09/24 13:27:37;;;;;;;9.98;6.40;;;;;;;;;;5012217;28;20048;-56
2022/09/24 13:30:14;;;;;;;12.68;6.40;;;;;;;;;;5013085;28;20026;-57
2022/09/24 13:33:01;;;;;;;12.63;5.97;;;;;;;;;;5013381;28;20026;-58
2022/09/24 13:35:30;;;;;;;11.98;6.82;;;;;;;;;;5016527;28;20568;-58
2022/09/24 13:38:05;;;;;;;12.43;7.18;;;;;;;;;;5002260;28;20054;-57
2022/09/24 13:40:34;;;;;;;11.25;7.18;;;;;;;;;;5025323;28;20021;-57
2022/09/24 13:43:09;;;;;;;9.48;6.00;;;;;;;;;;5030901;28;20117;-57
2022/09/24 13:45:35;;;;;;;9.10;6.63;;;;;;;;;;5016296;28;20123;-57
2022/09/24 13:48:03;;;;;;;8.32;6.65;;;;;;;;;;4995374;28;20094;-58
2022/09/24 13:50:32;;;;;;;10.75;7.60;;;;;;;;;;5015083;28;20022;-56
2022/09/24 13:53:05;;;;;;;10.10;7.70;;;;;;;;;;5002569;28;20030;-60
2022/09/24 13:55:37;;;;;;;10.77;7.80;;;;;;;;;;5029347;28;20033;-60
2022/09/24 13:58:04;;;;;;;8.85;7.43;;;;;;;;;;5013627;28;20026;-59
2022/09/24 14:00:31;;;;;;;9.60;7.28;;;;;;;;;;5013887;28;20028;-60
2022/09/24 14:02:57;;;;;;;15.43;8.48;;;;;;;;;;5017005;28;20037;-60
2022/09/24 14:05:23;;;;;;;13.17;8.10;;;;;;;;;;5013003;28;20064;-60
2022/09/24 14:07:57;;;;;;;9.53;8.13;;;;;;;;;;5012359;28;20057;-60
2022/09/24 14:10:24;;;;;;;13.02;7.85;;;;;;;;;;5011382;28;20303;-59
2022/09/24 14:13:00;;;;;;;12.93;9.15;;;;;;;;;;5014356;28;20029;-58
2022/09/24 14:15:26;;;;;;;14.13;8.75;;;;;;;;;;5017723;28;20033;-60
2022/09/24 14:17:58;;;;;;;9.82;8.15;;;;;;;;;;5015662;28;20057;-59
2022/09/24 14:20:28;;;;;;;13.43;8.32;;;;;;;;;;5011111;28;20026;-60
2022/09/24 14:22:54;;;;;;;13.27;8.20;;;;;;;;;;5013467;28;20053;-60
2022/09/24 14:25:23;;;;;;;16.00;9.23;;;;;;;;;;4993764;28;20493;-58
2022/09/24 14:27:51;;;;;;;10.23;9.07;;;;;;;;;;5011544;28;20428;-58
2022/09/24 14:30:21;;;;;;;10.52;8.30;;;;;;;;;;5013223;28;20033;-60
2022/09/24 14:32:50;;;;;;;11.70;8.57;;;;;;;;;;5016772;28;20026;-60
2022/09/24 14:35:36;;;;;;;9.98;7.80;;;;;;;;;;5017363;28;20033;-60
2022/09/24 14:38:03;;;;;;;9.35;7.53;;;;;;;;;;5002001;28;20072;-59
2022/09/24 14:40:29;;;;;;;8.90;7.45;;;;;;;;;;5016074;28;20030;-59
2022/09/24 14:42:57;;;;;;;9.60;6.97;;;;;;;;;;5015137;28;20113;-60
2022/09/24 14:45:29;;;;;;;10.13;6.95;;;;;;;;;;4993624;28;20026;-60
2022/09/24 14:48:00;;;;;;;9.07;6.82;;;;;;;;;;5008807;28;20018;-60
2022/09/24 14:50:46;;;;;;;11.15;6.00;;;;;;;;;;5032939;28;20076;-59
2022/09/24 14:53:19;;;;;;;7.63;5.68;;;;;;;;;;5032903;28;20049;-58
2022/09/24 14:55:46;;;;;;;8.30;5.72;;;;;;;;;;5032774;28;20060;-58
2022/09/24 14:58:30;;;;;;;7.60;5.00;;;;;;;;;;5031849;28;20029;-59
2022/09/24 15:00:59;;;;;;;7.80;5.20;;;;;;;;;;5017888;28;20041;-58
2022/09/24 15:03:38;;;;;;;7.55;6.18;;;;;;;;;;5012925;28;20034;-59
2022/09/24 15:06:06;;;;;;;9.75;5.35;;;;;;;;;;5012908;28;20044;-59